sensor_id;sensor_type;location;lat;lon;timestamp;P1;durP1;ratioP1;P2;durP2;ratioP2
11646;SDS011;5880;52.342;9.662;2022-11-20T00:01:25;9.97;;;7.50;;
11646;SDS011;5880;52.342;9.662;2022-11-20T00:03:51;11.40;;;7.50;;
11646;SDS011;5880;52.342;9.662;2022-11-20T00:06:19;8.90;;;6.77;;
11646;SDS011;5880;52.342;9.662;2022-11-20T00:08:47;11.47;;;7.60;;
11646;SDS011;5880;52.342;9.662;2022-11-20T00:11:17;8.23;;;6.60;;
11646;SDS011;5880;52.342;9.662;2022-11-20T00:13:46;8.53;;;6.53;;
11646;SDS011;5880;52.342;9.662;2022-11-20T00:16:15;8.93;;;7.10;;
11646;SDS011;5880;52.342;9.662;2022-11-20T00:18:44;10.33;;;6.90;;
11646;SDS011;5880;52.342;9.662;2022-11-20T00:21:15;9.47;;;6.87;;
11646;SDS011;5880;52.342;9.662;2022-11-20T00:23:43;8.70;;;6.93;;
11646;SDS011;5880;52.342;9.662;2022-11-20T00:26:11;9.77;;;7.27;;
11646;SDS011;5880;52.342;9.662;2022-11-20T00:28:39;9.13;;;6.70;;
11646;SDS011;5880;52.342;9.662;2022-11-20T00:31:13;9.00;;;6.80;;
11646;SDS011;5880;52.342;9.662;2022-11-20T00:33:41;8.43;;;6.50;;
11646;SDS011;5880;52.342;9.662;2022-11-20T00:36:12;8.77;;;6.80;;
11646;SDS011;5880;52.342;9.662;2022-11-20T00:38:52;9.90;;;6.97;;
11646;SDS011;5880;52.342;9.662;2022-11-20T00:41:21;9.23;;;6.57;;
11646;SDS011;5880;52.342;9.662;2022-11-20T00:43:47;8.23;;;6.33;;
11646;SDS011;5880;52.342;9.662;2022-11-20T00:46:14;8.40;;;6.47;;
11646;SDS011;5880;52.342;9.662;2022-11-20T00:48:42;7.17;;;6.30;;
11646;SDS011;5880;52.342;9.662;2022-11-20T00:51:10;8.30;;;6.63;;
11646;SDS011;5880;52.342;9.662;2022-11-20T00:53:39;7.27;;;6.40;;
11646;SDS011;5880;52.342;9.662;2022-11-20T00:56:06;8.80;;;6.67;;
11646;SDS011;5880;52.342;9.662;2022-11-20T00:58:39;8.93;;;6.43;;
11646;SDS011;5880;52.342;9.662;2022-11-20T01:01:08;8.47;;;6.67;;
11646;SDS011;5880;52.342;9.662;2022-11-20T01:03:44;8.63;;;6.20;;
11646;SDS011;5880;52.342;9.662;2022-11-20T01:08:45;8.47;;;6.60;;
11646;SDS011;5880;52.342;9.662;2022-11-20T01:11:13;9.17;;;6.67;;
11646;SDS011;5880;52.342;9.662;2022-11-20T01:13:45;9.20;;;6.80;;
11646;SDS011;5880;52.342;9.662;2022-11-20T01:16:17;9.23;;;6.53;;
11646;SDS011;5880;52.342;9.662;2022-11-20T01:18:50;8.50;;;6.30;;
11646;SDS011;5880;52.342;9.662;2022-11-20T01:21:19;9.53;;;6.97;;
11646;SDS011;5880;52.342;9.662;2022-11-20T01:23:57;8.53;;;6.13;;
11646;SDS011;5880;52.342;9.662;2022-11-20T01:26:24;8.37;;;6.10;;
11646;SDS011;5880;52.342;9.662;2022-11-20T01:28:53;7.87;;;6.03;;
11646;SDS011;5880;52.342;9.662;2022-11-20T01:31:23;9.77;;;6.57;;
11646;SDS011;5880;52.342;9.662;2022-11-20T01:33:54;8.70;;;6.40;;
11646;SDS011;5880;52.342;9.662;2022-11-20T01:36:23;8.03;;;6.17;;
11646;SDS011;5880;52.342;9.662;2022-11-20T01:38:52;9.03;;;6.47;;
11646;SDS011;5880;52.342;9.662;2022-11-20T01:41:20;10.30;;;6.93;;
11646;SDS011;5880;52.342;9.662;2022-11-20T01:44:08;9.70;;;6.50;;
11646;SDS011;5880;52.342;9.662;2022-11-20T01:46:39;9.57;;;6.30;;
11646;SDS011;5880;52.342;9.662;2022-11-20T01:49:19;9.07;;;6.57;;
11646;SDS011;5880;52.342;9.662;2022-11-20T01:52:07;8.87;;;6.17;;
11646;SDS011;5880;52.342;9.662;2022-11-20T01:55:17;8.43;;;6.23;;
11646;SDS011;5880;52.342;9.662;2022-11-20T01:57:48;7.70;;;5.93;;
11646;SDS011;5880;52.342;9.662;2022-11-20T02:00:16;8.93;;;5.97;;
11646;SDS011;5880;52.342;9.662;2022-11-20T02:02:48;7.80;;;6.03;;
11646;SDS011;5880;52.342;9.662;2022-11-20T02:08:19;8.53;;;5.87;;
11646;SDS011;5880;52.342;9.662;2022-11-20T02:10:46;10.07;;;6.77;;
11646;SDS011;5880;52.342;9.662;2022-11-20T02:13:12;9.43;;;6.63;;
11646;SDS011;5880;52.342;9.662;2022-11-20T02:15:56;9.93;;;6.80;;
11646;SDS011;5880;52.342;9.662;2022-11-20T02:18:22;8.43;;;6.30;;
11646;SDS011;5880;52.342;9.662;2022-11-20T02:20:50;9.27;;;6.23;;
11646;SDS011;5880;52.342;9.662;2022-11-20T02:26:01;8.37;;;6.37;;
11646;SDS011;5880;52.342;9.662;2022-11-20T02:28:32;8.47;;;6.37;;
11646;SDS011;5880;52.342;9.662;2022-11-20T02:30:58;8.77;;;6.33;;
11646;SDS011;5880;52.342;9.662;2022-11-20T02:33:24;7.37;;;6.20;;
11646;SDS011;5880;52.342;9.662;2022-11-20T02:35:49;8.23;;;5.97;;
11646;SDS011;5880;52.342;9.662;2022-11-20T02:38:15;8.43;;;6.43;;
11646;SDS011;5880;52.342;9.662;2022-11-20T02:40:41;9.23;;;6.53;;
11646;SDS011;5880;52.342;9.662;2022-11-20T02:43:08;8.27;;;6.03;;
11646;SDS011;5880;52.342;9.662;2022-11-20T02:45:34;9.07;;;6.67;;
11646;SDS011;5880;52.342;9.662;2022-11-20T02:48:00;7.90;;;6.00;;
11646;SDS011;5880;52.342;9.662;2022-11-20T02:50:25;8.47;;;5.87;;
11646;SDS011;5880;52.342;9.662;2022-11-20T02:52:51;8.67;;;6.40;;
11646;SDS011;5880;52.342;9.662;2022-11-20T02:55:17;8.17;;;6.03;;
11646;SDS011;5880;52.342;9.662;2022-11-20T02:57:43;7.73;;;5.70;;
11646;SDS011;5880;52.342;9.662;2022-11-20T03:00:09;9.00;;;6.10;;
11646;SDS011;5880;52.342;9.662;2022-11-20T03:02:35;9.97;;;6.53;;
11646;SDS011;5880;52.342;9.662;2022-11-20T03:05:01;9.13;;;6.30;;
11646;SDS011;5880;52.342;9.662;2022-11-20T03:07:27;9.63;;;6.23;;
11646;SDS011;5880;52.342;9.662;2022-11-20T03:09:53;7.50;;;6.20;;
11646;SDS011;5880;52.342;9.662;2022-11-20T03:12:19;8.73;;;6.90;;
11646;SDS011;5880;52.342;9.662;2022-11-20T03:14:44;8.70;;;6.63;;
11646;SDS011;5880;52.342;9.662;2022-11-20T03:17:10;8.60;;;6.83;;
11646;SDS011;5880;52.342;9.662;2022-11-20T03:19:36;9.43;;;7.13;;
11646;SDS011;5880;52.342;9.662;2022-11-20T03:22:01;8.07;;;6.40;;
11646;SDS011;5880;52.342;9.662;2022-11-20T03:24:27;10.57;;;7.20;;
11646;SDS011;5880;52.342;9.662;2022-11-20T03:26:53;11.07;;;7.30;;
11646;SDS011;5880;52.342;9.662;2022-11-20T03:29:19;9.20;;;6.90;;
11646;SDS011;5880;52.342;9.662;2022-11-20T03:31:44;10.00;;;6.93;;
11646;SDS011;5880;52.342;9.662;2022-11-20T03:34:10;9.53;;;6.57;;
11646;SDS011;5880;52.342;9.662;2022-11-20T03:36:40;9.97;;;6.53;;
11646;SDS011;5880;52.342;9.662;2022-11-20T03:39:08;9.83;;;7.20;;
11646;SDS011;5880;52.342;9.662;2022-11-20T03:41:39;10.27;;;7.00;;
11646;SDS011;5880;52.342;9.662;2022-11-20T03:44:07;9.93;;;6.77;;
11646;SDS011;5880;52.342;9.662;2022-11-20T03:46:35;8.90;;;6.83;;
11646;SDS011;5880;52.342;9.662;2022-11-20T03:49:02;10.63;;;7.23;;
11646;SDS011;5880;52.342;9.662;2022-11-20T03:51:29;9.07;;;6.87;;
11646;SDS011;5880;52.342;9.662;2022-11-20T03:54:01;8.77;;;6.37;;
11646;SDS011;5880;52.342;9.662;2022-11-20T03:56:31;9.97;;;6.97;;
11646;SDS011;5880;52.342;9.662;2022-11-20T03:59:00;10.97;;;7.20;;
11646;SDS011;5880;52.342;9.662;2022-11-20T04:01:29;8.70;;;6.50;;
11646;SDS011;5880;52.342;9.662;2022-11-20T04:03:58;9.93;;;6.83;;
11646;SDS011;5880;52.342;9.662;2022-11-20T04:06:28;8.83;;;6.70;;
11646;SDS011;5880;52.342;9.662;2022-11-20T04:08:59;10.33;;;6.63;;
11646;SDS011;5880;52.342;9.662;2022-11-20T04:11:27;9.57;;;7.03;;
11646;SDS011;5880;52.342;9.662;2022-11-20T04:14:00;9.23;;;6.53;;
11646;SDS011;5880;52.342;9.662;2022-11-20T04:16:29;9.27;;;6.60;;
11646;SDS011;5880;52.342;9.662;2022-11-20T04:18:59;8.47;;;6.53;;
11646;SDS011;5880;52.342;9.662;2022-11-20T04:21:29;9.40;;;6.73;;
11646;SDS011;5880;52.342;9.662;2022-11-20T04:23:55;10.13;;;7.17;;
11646;SDS011;5880;52.342;9.662;2022-11-20T04:26:22;11.57;;;7.33;;
11646;SDS011;5880;52.342;9.662;2022-11-20T04:28:50;8.97;;;6.63;;
11646;SDS011;5880;52.342;9.662;2022-11-20T04:31:17;9.30;;;7.07;;
11646;SDS011;5880;52.342;9.662;2022-11-20T04:33:50;8.90;;;6.73;;
11646;SDS011;5880;52.342;9.662;2022-11-20T04:36:17;9.93;;;6.93;;
11646;SDS011;5880;52.342;9.662;2022-11-20T04:38:51;8.93;;;6.67;;
11646;SDS011;5880;52.342;9.662;2022-11-20T04:41:20;8.67;;;6.67;;
11646;SDS011;5880;52.342;9.662;2022-11-20T04:43:51;8.73;;;6.90;;
11646;SDS011;5880;52.342;9.662;2022-11-20T04:46:24;8.77;;;6.43;;
11646;SDS011;5880;52.342;9.662;2022-11-20T04:48:51;8.90;;;6.43;;
11646;SDS011;5880;52.342;9.662;2022-11-20T04:51:18;8.90;;;6.60;;
11646;SDS011;5880;52.342;9.662;2022-11-20T04:53:43;8.90;;;6.40;;
11646;SDS011;5880;52.342;9.662;2022-11-20T04:56:10;9.40;;;6.50;;
11646;SDS011;5880;52.342;9.662;2022-11-20T04:58:38;7.83;;;6.30;;
11646;SDS011;5880;52.342;9.662;2022-11-20T05:01:10;9.30;;;6.67;;
11646;SDS011;5880;52.342;9.662;2022-11-20T05:03:39;9.50;;;6.80;;
11646;SDS011;5880;52.342;9.662;2022-11-20T05:06:07;9.30;;;6.80;;
11646;SDS011;5880;52.342;9.662;2022-11-20T05:08:34;9.70;;;7.20;;
11646;SDS011;5880;52.342;9.662;2022-11-20T05:11:01;9.57;;;6.77;;
11646;SDS011;5880;52.342;9.662;2022-11-20T05:13:29;9.53;;;6.47;;
11646;SDS011;5880;52.342;9.662;2022-11-20T05:15:55;9.37;;;6.93;;
11646;SDS011;5880;52.342;9.662;2022-11-20T05:18:31;9.23;;;6.87;;
11646;SDS011;5880;52.342;9.662;2022-11-20T05:20:58;10.20;;;6.80;;
11646;SDS011;5880;52.342;9.662;2022-11-20T05:23:25;9.37;;;6.47;;
11646;SDS011;5880;52.342;9.662;2022-11-20T05:25:52;8.53;;;6.43;;
11646;SDS011;5880;52.342;9.662;2022-11-20T05:28:20;11.03;;;7.00;;
11646;SDS011;5880;52.342;9.662;2022-11-20T05:30:46;8.37;;;6.37;;
11646;SDS011;5880;52.342;9.662;2022-11-20T05:33:12;9.47;;;6.90;;
11646;SDS011;5880;52.342;9.662;2022-11-20T05:35:38;9.47;;;6.53;;
11646;SDS011;5880;52.342;9.662;2022-11-20T05:38:03;8.53;;;6.57;;
11646;SDS011;5880;52.342;9.662;2022-11-20T05:40:29;9.07;;;6.70;;
11646;SDS011;5880;52.342;9.662;2022-11-20T05:42:55;10.23;;;7.23;;
11646;SDS011;5880;52.342;9.662;2022-11-20T05:45:21;8.93;;;6.73;;
11646;SDS011;5880;52.342;9.662;2022-11-20T05:47:46;9.63;;;7.30;;
11646;SDS011;5880;52.342;9.662;2022-11-20T05:50:12;10.97;;;7.20;;
11646;SDS011;5880;52.342;9.662;2022-11-20T05:52:39;9.57;;;6.80;;
11646;SDS011;5880;52.342;9.662;2022-11-20T05:55:06;11.30;;;7.50;;
11646;SDS011;5880;52.342;9.662;2022-11-20T05:57:32;8.57;;;6.47;;
11646;SDS011;5880;52.342;9.662;2022-11-20T05:59:58;11.07;;;7.60;;
11646;SDS011;5880;52.342;9.662;2022-11-20T06:02:23;9.87;;;6.83;;
11646;SDS011;5880;52.342;9.662;2022-11-20T06:04:49;8.40;;;6.83;;
11646;SDS011;5880;52.342;9.662;2022-11-20T06:07:15;10.37;;;7.23;;
11646;SDS011;5880;52.342;9.662;2022-11-20T06:09:41;8.47;;;6.73;;
11646;SDS011;5880;52.342;9.662;2022-11-20T06:12:06;8.33;;;6.33;;
11646;SDS011;5880;52.342;9.662;2022-11-20T06:14:32;8.77;;;6.90;;
11646;SDS011;5880;52.342;9.662;2022-11-20T06:16:58;9.57;;;6.70;;
11646;SDS011;5880;52.342;9.662;2022-11-20T06:19:24;8.07;;;6.50;;
11646;SDS011;5880;52.342;9.662;2022-11-20T06:21:50;9.33;;;7.33;;
11646;SDS011;5880;52.342;9.662;2022-11-20T06:24:16;9.80;;;6.77;;
11646;SDS011;5880;52.342;9.662;2022-11-20T06:26:42;8.83;;;6.53;;
11646;SDS011;5880;52.342;9.662;2022-11-20T06:29:09;10.03;;;7.30;;
11646;SDS011;5880;52.342;9.662;2022-11-20T06:31:35;9.93;;;7.10;;
11646;SDS011;5880;52.342;9.662;2022-11-20T06:34:03;10.77;;;6.83;;
11646;SDS011;5880;52.342;9.662;2022-11-20T06:36:30;8.87;;;6.43;;
11646;SDS011;5880;52.342;9.662;2022-11-20T06:38:57;9.90;;;6.73;;
11646;SDS011;5880;52.342;9.662;2022-11-20T06:41:24;8.83;;;6.73;;
11646;SDS011;5880;52.342;9.662;2022-11-20T06:43:50;9.80;;;6.53;;
11646;SDS011;5880;52.342;9.662;2022-11-20T06:46:17;9.50;;;7.03;;
11646;SDS011;5880;52.342;9.662;2022-11-20T06:48:44;9.63;;;6.83;;
11646;SDS011;5880;52.342;9.662;2022-11-20T06:51:12;8.57;;;6.53;;
11646;SDS011;5880;52.342;9.662;2022-11-20T06:53:38;9.27;;;6.47;;
11646;SDS011;5880;52.342;9.662;2022-11-20T06:56:04;8.60;;;6.53;;
11646;SDS011;5880;52.342;9.662;2022-11-20T06:58:32;9.63;;;7.10;;
11646;SDS011;5880;52.342;9.662;2022-11-20T07:00:59;8.83;;;6.37;;
11646;SDS011;5880;52.342;9.662;2022-11-20T07:03:27;9.57;;;7.03;;
11646;SDS011;5880;52.342;9.662;2022-11-20T07:05:56;10.27;;;6.67;;
11646;SDS011;5880;52.342;9.662;2022-11-20T07:08:23;8.30;;;6.50;;
11646;SDS011;5880;52.342;9.662;2022-11-20T07:10:49;9.60;;;7.00;;
11646;SDS011;5880;52.342;9.662;2022-11-20T07:13:15;8.40;;;7.03;;
11646;SDS011;5880;52.342;9.662;2022-11-20T07:15:41;10.47;;;7.23;;
11646;SDS011;5880;52.342;9.662;2022-11-20T07:18:07;10.40;;;6.60;;
11646;SDS011;5880;52.342;9.662;2022-11-20T07:20:33;8.50;;;6.67;;
11646;SDS011;5880;52.342;9.662;2022-11-20T07:22:58;8.57;;;6.30;;
11646;SDS011;5880;52.342;9.662;2022-11-20T07:25:25;8.37;;;6.03;;
11646;SDS011;5880;52.342;9.662;2022-11-20T07:27:52;9.10;;;6.53;;
11646;SDS011;5880;52.342;9.662;2022-11-20T07:30:24;7.57;;;6.37;;
11646;SDS011;5880;52.342;9.662;2022-11-20T07:32:52;9.63;;;7.33;;
11646;SDS011;5880;52.342;9.662;2022-11-20T07:35:19;8.60;;;5.93;;
11646;SDS011;5880;52.342;9.662;2022-11-20T07:37:45;8.33;;;6.37;;
11646;SDS011;5880;52.342;9.662;2022-11-20T07:40:12;7.87;;;5.87;;
11646;SDS011;5880;52.342;9.662;2022-11-20T07:42:38;8.10;;;6.17;;
11646;SDS011;5880;52.342;9.662;2022-11-20T07:45:04;7.77;;;5.93;;
11646;SDS011;5880;52.342;9.662;2022-11-20T07:47:36;9.70;;;6.50;;
11646;SDS011;5880;52.342;9.662;2022-11-20T07:50:02;9.80;;;6.47;;
11646;SDS011;5880;52.342;9.662;2022-11-20T07:52:28;8.83;;;6.77;;
11646;SDS011;5880;52.342;9.662;2022-11-20T07:54:54;8.97;;;6.37;;
11646;SDS011;5880;52.342;9.662;2022-11-20T07:57:20;8.43;;;6.53;;
11646;SDS011;5880;52.342;9.662;2022-11-20T07:59:45;10.60;;;6.97;;
11646;SDS011;5880;52.342;9.662;2022-11-20T08:02:11;9.40;;;6.20;;
11646;SDS011;5880;52.342;9.662;2022-11-20T08:04:36;9.37;;;6.40;;
11646;SDS011;5880;52.342;9.662;2022-11-20T08:07:02;8.83;;;5.93;;
11646;SDS011;5880;52.342;9.662;2022-11-20T08:09:28;9.53;;;6.60;;
11646;SDS011;5880;52.342;9.662;2022-11-20T08:11:54;10.10;;;7.00;;
11646;SDS011;5880;52.342;9.662;2022-11-20T08:14:38;9.30;;;6.33;;
11646;SDS011;5880;52.342;9.662;2022-11-20T08:17:04;8.83;;;6.60;;
11646;SDS011;5880;52.342;9.662;2022-11-20T08:19:29;8.70;;;6.43;;
11646;SDS011;5880;52.342;9.662;2022-11-20T08:21:55;9.73;;;7.30;;
11646;SDS011;5880;52.342;9.662;2022-11-20T08:24:21;9.67;;;7.20;;
11646;SDS011;5880;52.342;9.662;2022-11-20T08:26:46;9.93;;;7.50;;
11646;SDS011;5880;52.342;9.662;2022-11-20T08:29:12;10.23;;;7.40;;
11646;SDS011;5880;52.342;9.662;2022-11-20T08:31:38;9.33;;;7.53;;
11646;SDS011;5880;52.342;9.662;2022-11-20T08:34:03;9.83;;;7.40;;
11646;SDS011;5880;52.342;9.662;2022-11-20T08:36:32;10.13;;;7.30;;
11646;SDS011;5880;52.342;9.662;2022-11-20T08:38:59;8.67;;;6.50;;
11646;SDS011;5880;52.342;9.662;2022-11-20T08:41:25;8.20;;;7.07;;
11646;SDS011;5880;52.342;9.662;2022-11-20T08:43:56;8.43;;;6.60;;
11646;SDS011;5880;52.342;9.662;2022-11-20T08:46:25;9.97;;;7.07;;
11646;SDS011;5880;52.342;9.662;2022-11-20T08:48:57;8.53;;;6.53;;
11646;SDS011;5880;52.342;9.662;2022-11-20T08:51:24;9.07;;;6.90;;
11646;SDS011;5880;52.342;9.662;2022-11-20T08:53:49;9.53;;;7.37;;
11646;SDS011;5880;52.342;9.662;2022-11-20T08:56:15;8.63;;;6.57;;
11646;SDS011;5880;52.342;9.662;2022-11-20T08:58:42;7.70;;;6.23;;
11646;SDS011;5880;52.342;9.662;2022-11-20T09:01:08;8.03;;;6.53;;
11646;SDS011;5880;52.342;9.662;2022-11-20T09:03:34;8.87;;;6.70;;
11646;SDS011;5880;52.342;9.662;2022-11-20T09:06:01;9.30;;;6.87;;
11646;SDS011;5880;52.342;9.662;2022-11-20T09:08:32;9.07;;;6.83;;
11646;SDS011;5880;52.342;9.662;2022-11-20T09:10:58;9.73;;;6.87;;
11646;SDS011;5880;52.342;9.662;2022-11-20T09:13:25;9.10;;;7.17;;
11646;SDS011;5880;52.342;9.662;2022-11-20T09:16:03;8.43;;;6.77;;
11646;SDS011;5880;52.342;9.662;2022-11-20T09:18:34;10.30;;;6.97;;
11646;SDS011;5880;52.342;9.662;2022-11-20T09:21:02;9.70;;;7.10;;
11646;SDS011;5880;52.342;9.662;2022-11-20T09:23:35;8.50;;;6.67;;
11646;SDS011;5880;52.342;9.662;2022-11-20T09:26:03;9.03;;;7.30;;
11646;SDS011;5880;52.342;9.662;2022-11-20T09:28:35;9.83;;;7.50;;
11646;SDS011;5880;52.342;9.662;2022-11-20T09:31:04;9.87;;;7.50;;
11646;SDS011;5880;52.342;9.662;2022-11-20T09:33:41;9.07;;;6.70;;
11646;SDS011;5880;52.342;9.662;2022-11-20T09:36:07;9.17;;;6.90;;
11646;SDS011;5880;52.342;9.662;2022-11-20T09:38:33;9.53;;;7.60;;
11646;SDS011;5880;52.342;9.662;2022-11-20T09:43:39;10.57;;;7.60;;
11646;SDS011;5880;52.342;9.662;2022-11-20T09:46:40;9.17;;;6.87;;
11646;SDS011;5880;52.342;9.662;2022-11-20T09:49:40;9.33;;;7.00;;
11646;SDS011;5880;52.342;9.662;2022-11-20T09:52:22;9.30;;;6.67;;
11646;SDS011;5880;52.342;9.662;2022-11-20T09:55:10;8.43;;;6.93;;
11646;SDS011;5880;52.342;9.662;2022-11-20T09:57:40;7.10;;;5.80;;
11646;SDS011;5880;52.342;9.662;2022-11-20T10:00:11;9.43;;;6.47;;
11646;SDS011;5880;52.342;9.662;2022-11-20T10:11:12;8.67;;;6.17;;
11646;SDS011;5880;52.342;9.662;2022-11-20T10:14:03;8.47;;;6.80;;
11646;SDS011;5880;52.342;9.662;2022-11-20T10:22:44;8.43;;;6.33;;
11646;SDS011;5880;52.342;9.662;2022-11-20T10:25:38;7.80;;;5.93;;
11646;SDS011;5880;52.342;9.662;2022-11-20T10:30:59;6.67;;;5.37;;
11646;SDS011;5880;52.342;9.662;2022-11-20T10:33:31;7.30;;;5.73;;
11646;SDS011;5880;52.342;9.662;2022-11-20T10:39:04;6.53;;;5.43;;
11646;SDS011;5880;52.342;9.662;2022-11-20T10:41:49;6.97;;;5.13;;
11646;SDS011;5880;52.342;9.662;2022-11-20T10:44:19;6.40;;;5.27;;
11646;SDS011;5880;52.342;9.662;2022-11-20T10:47:13;6.20;;;5.07;;
11646;SDS011;5880;52.342;9.662;2022-11-20T10:49:43;5.47;;;4.67;;
11646;SDS011;5880;52.342;9.662;2022-11-20T10:52:19;5.13;;;4.47;;
11646;SDS011;5880;52.342;9.662;2022-11-20T10:55:18;6.43;;;4.73;;
11646;SDS011;5880;52.342;9.662;2022-11-20T10:58:14;6.33;;;4.67;;
11646;SDS011;5880;52.342;9.662;2022-11-20T11:01:30;6.40;;;5.03;;
11646;SDS011;5880;52.342;9.662;2022-11-20T11:03:51;6.00;;;5.23;;
11646;SDS011;5880;52.342;9.662;2022-11-20T11:09:15;5.87;;;4.93;;
11646;SDS011;5880;52.342;9.662;2022-11-20T11:11:47;5.77;;;4.83;;
11646;SDS011;5880;52.342;9.662;2022-11-20T11:14:14;6.03;;;4.97;;
11646;SDS011;5880;52.342;9.662;2022-11-20T11:16:48;8.00;;;5.20;;
11646;SDS011;5880;52.342;9.662;2022-11-20T11:19:16;6.07;;;5.07;;
11646;SDS011;5880;52.342;9.662;2022-11-20T11:21:49;6.43;;;5.30;;
11646;SDS011;5880;52.342;9.662;2022-11-20T11:24:23;7.30;;;5.33;;
11646;SDS011;5880;52.342;9.662;2022-11-20T11:27:01;9.27;;;6.17;;
11646;SDS011;5880;52.342;9.662;2022-11-20T11:29:35;6.50;;;5.50;;
11646;SDS011;5880;52.342;9.662;2022-11-20T11:32:05;6.07;;;5.10;;
11646;SDS011;5880;52.342;9.662;2022-11-20T11:34:33;6.83;;;5.40;;
11646;SDS011;5880;52.342;9.662;2022-11-20T11:36:59;6.30;;;5.33;;
11646;SDS011;5880;52.342;9.662;2022-11-20T11:39:28;7.07;;;5.27;;
11646;SDS011;5880;52.342;9.662;2022-11-20T11:41:56;6.53;;;4.87;;
11646;SDS011;5880;52.342;9.662;2022-11-20T11:44:27;6.57;;;4.87;;
11646;SDS011;5880;52.342;9.662;2022-11-20T11:52:45;6.43;;;4.60;;
11646;SDS011;5880;52.342;9.662;2022-11-20T12:07:15;6.80;;;5.47;;
11646;SDS011;5880;52.342;9.662;2022-11-20T12:10:03;7.37;;;5.63;;
11646;SDS011;5880;52.342;9.662;2022-11-20T12:12:32;6.77;;;5.63;;
11646;SDS011;5880;52.342;9.662;2022-11-20T12:15:10;7.03;;;5.80;;
11646;SDS011;5880;52.342;9.662;2022-11-20T12:17:47;7.77;;;6.47;;
11646;SDS011;5880;52.342;9.662;2022-11-20T12:20:13;8.77;;;6.30;;
11646;SDS011;5880;52.342;9.662;2022-11-20T12:22:45;9.53;;;6.60;;
11646;SDS011;5880;52.342;9.662;2022-11-20T12:25:34;9.77;;;6.63;;
11646;SDS011;5880;52.342;9.662;2022-11-20T12:28:15;8.97;;;7.10;;
11646;SDS011;5880;52.342;9.662;2022-11-20T12:31:23;11.33;;;8.23;;
11646;SDS011;5880;52.342;9.662;2022-11-20T12:37:52;10.77;;;7.73;;
11646;SDS011;5880;52.342;9.662;2022-11-20T12:56:50;8.23;;;6.67;;
11646;SDS011;5880;52.342;9.662;2022-11-20T13:05:20;9.83;;;7.70;;
11646;SDS011;5880;52.342;9.662;2022-11-20T13:07:54;10.77;;;7.90;;
11646;SDS011;5880;52.342;9.662;2022-11-20T13:13:29;8.90;;;6.70;;
11646;SDS011;5880;52.342;9.662;2022-11-20T13:16:15;8.30;;;6.67;;
11646;SDS011;5880;52.342;9.662;2022-11-20T13:19:11;10.47;;;6.83;;
11646;SDS011;5880;52.342;9.662;2022-11-20T13:21:42;10.93;;;7.43;;
11646;SDS011;5880;52.342;9.662;2022-11-20T13:26:47;10.73;;;7.47;;
11646;SDS011;5880;52.342;9.662;2022-11-20T13:29:44;9.87;;;7.50;;
11646;SDS011;5880;52.342;9.662;2022-11-20T13:32:13;9.07;;;7.47;;
11646;SDS011;5880;52.342;9.662;2022-11-20T13:34:58;10.33;;;7.63;;
11646;SDS011;5880;52.342;9.662;2022-11-20T13:42:38;9.83;;;8.00;;
11646;SDS011;5880;52.342;9.662;2022-11-20T13:45:20;11.40;;;8.53;;
11646;SDS011;5880;52.342;9.662;2022-11-20T13:47:53;10.97;;;8.20;;
11646;SDS011;5880;52.342;9.662;2022-11-20T13:50:32;10.50;;;8.23;;
11646;SDS011;5880;52.342;9.662;2022-11-20T13:59:33;12.03;;;7.83;;
11646;SDS011;5880;52.342;9.662;2022-11-20T14:02:15;12.13;;;8.40;;
11646;SDS011;5880;52.342;9.662;2022-11-20T14:04:45;9.93;;;7.40;;
11646;SDS011;5880;52.342;9.662;2022-11-20T14:07:16;10.70;;;8.20;;
11646;SDS011;5880;52.342;9.662;2022-11-20T14:09:56;10.40;;;8.23;;
11646;SDS011;5880;52.342;9.662;2022-11-20T14:12:32;10.23;;;7.97;;
11646;SDS011;5880;52.342;9.662;2022-11-20T14:14:59;11.73;;;8.23;;
11646;SDS011;5880;52.342;9.662;2022-11-20T14:19:54;11.17;;;7.83;;
11646;SDS011;5880;52.342;9.662;2022-11-20T14:22:28;11.37;;;7.63;;
11646;SDS011;5880;52.342;9.662;2022-11-20T14:25:18;9.33;;;7.43;;
11646;SDS011;5880;52.342;9.662;2022-11-20T14:27:56;10.90;;;8.07;;
11646;SDS011;5880;52.342;9.662;2022-11-20T14:30:26;11.37;;;8.53;;
11646;SDS011;5880;52.342;9.662;2022-11-20T14:33:12;10.83;;;8.07;;
11646;SDS011;5880;52.342;9.662;2022-11-20T14:35:42;10.77;;;7.97;;
11646;SDS011;5880;52.342;9.662;2022-11-20T14:38:12;12.03;;;8.73;;
11646;SDS011;5880;52.342;9.662;2022-11-20T14:40:43;12.40;;;8.77;;
11646;SDS011;5880;52.342;9.662;2022-11-20T14:43:23;12.00;;;8.70;;
11646;SDS011;5880;52.342;9.662;2022-11-20T14:46:03;12.07;;;8.70;;
11646;SDS011;5880;52.342;9.662;2022-11-20T14:48:38;10.63;;;8.10;;
11646;SDS011;5880;52.342;9.662;2022-11-20T14:51:36;11.17;;;7.93;;
11646;SDS011;5880;52.342;9.662;2022-11-20T14:54:08;10.87;;;7.83;;
11646;SDS011;5880;52.342;9.662;2022-11-20T14:56:37;10.87;;;7.70;;
11646;SDS011;5880;52.342;9.662;2022-11-20T14:59:03;10.73;;;8.23;;
11646;SDS011;5880;52.342;9.662;2022-11-20T15:01:29;11.33;;;8.23;;
11646;SDS011;5880;52.342;9.662;2022-11-20T15:06:36;18.73;;;11.20;;
11646;SDS011;5880;52.342;9.662;2022-11-20T15:09:17;17.80;;;10.73;;
11646;SDS011;5880;52.342;9.662;2022-11-20T15:11:52;16.63;;;10.07;;
11646;SDS011;5880;52.342;9.662;2022-11-20T15:14:29;16.17;;;10.03;;
11646;SDS011;5880;52.342;9.662;2022-11-20T15:16:57;12.93;;;9.00;;
11646;SDS011;5880;52.342;9.662;2022-11-20T15:19:25;14.07;;;9.50;;
11646;SDS011;5880;52.342;9.662;2022-11-20T15:21:51;13.03;;;9.40;;
11646;SDS011;5880;52.342;9.662;2022-11-20T15:24:18;12.13;;;8.53;;
11646;SDS011;5880;52.342;9.662;2022-11-20T15:26:44;12.70;;;8.77;;
11646;SDS011;5880;52.342;9.662;2022-11-20T15:29:11;14.87;;;9.60;;
11646;SDS011;5880;52.342;9.662;2022-11-20T15:31:43;13.43;;;9.67;;
11646;SDS011;5880;52.342;9.662;2022-11-20T15:34:13;12.80;;;9.93;;
11646;SDS011;5880;52.342;9.662;2022-11-20T15:36:40;13.17;;;9.50;;
11646;SDS011;5880;52.342;9.662;2022-11-20T15:39:08;13.83;;;9.87;;
11646;SDS011;5880;52.342;9.662;2022-11-20T15:41:37;13.83;;;9.70;;
11646;SDS011;5880;52.342;9.662;2022-11-20T15:44:03;13.60;;;10.40;;
11646;SDS011;5880;52.342;9.662;2022-11-20T15:46:34;16.47;;;11.07;;
11646;SDS011;5880;52.342;9.662;2022-11-20T15:49:05;14.20;;;9.97;;
11646;SDS011;5880;52.342;9.662;2022-11-20T15:51:37;13.47;;;10.17;;
11646;SDS011;5880;52.342;9.662;2022-11-20T15:54:23;15.10;;;10.23;;
11646;SDS011;5880;52.342;9.662;2022-11-20T15:56:49;13.87;;;10.00;;
11646;SDS011;5880;52.342;9.662;2022-11-20T15:59:18;15.37;;;10.20;;
11646;SDS011;5880;52.342;9.662;2022-11-20T16:01:44;14.40;;;10.63;;
11646;SDS011;5880;52.342;9.662;2022-11-20T16:04:13;12.80;;;10.00;;
11646;SDS011;5880;52.342;9.662;2022-11-20T16:06:41;16.23;;;10.70;;
11646;SDS011;5880;52.342;9.662;2022-11-20T16:09:07;16.20;;;11.37;;
11646;SDS011;5880;52.342;9.662;2022-11-20T16:11:33;16.93;;;10.80;;
11646;SDS011;5880;52.342;9.662;2022-11-20T16:14:01;18.30;;;12.43;;
11646;SDS011;5880;52.342;9.662;2022-11-20T16:16:49;17.80;;;11.57;;
11646;SDS011;5880;52.342;9.662;2022-11-20T16:19:15;16.00;;;11.93;;
11646;SDS011;5880;52.342;9.662;2022-11-20T16:21:42;16.13;;;10.80;;
11646;SDS011;5880;52.342;9.662;2022-11-20T16:24:10;14.00;;;10.20;;
11646;SDS011;5880;52.342;9.662;2022-11-20T16:26:38;15.20;;;10.30;;
11646;SDS011;5880;52.342;9.662;2022-11-20T16:29:05;14.03;;;10.83;;
11646;SDS011;5880;52.342;9.662;2022-11-20T16:31:31;16.67;;;10.37;;
11646;SDS011;5880;52.342;9.662;2022-11-20T16:33:58;16.03;;;11.50;;
11646;SDS011;5880;52.342;9.662;2022-11-20T16:36:28;15.97;;;10.73;;
11646;SDS011;5880;52.342;9.662;2022-11-20T16:38:55;16.50;;;11.50;;
11646;SDS011;5880;52.342;9.662;2022-11-20T16:41:25;15.50;;;11.00;;
11646;SDS011;5880;52.342;9.662;2022-11-20T16:43:53;16.27;;;10.77;;
11646;SDS011;5880;52.342;9.662;2022-11-20T16:46:22;17.27;;;11.43;;
11646;SDS011;5880;52.342;9.662;2022-11-20T16:49:00;15.23;;;11.20;;
11646;SDS011;5880;52.342;9.662;2022-11-20T16:51:35;15.27;;;10.97;;
11646;SDS011;5880;52.342;9.662;2022-11-20T16:54:02;15.17;;;10.90;;
11646;SDS011;5880;52.342;9.662;2022-11-20T16:56:33;16.73;;;11.00;;